createdAt,value
2018-08-22T00:00:51.033Z,9.20
2018-08-22T00:04:54.238Z,9.53
2018-08-22T00:08:57.422Z,10.40
2018-08-22T00:13:00.601Z,9.80
2018-08-22T00:17:03.703Z,9.00
2018-08-22T00:21:06.922Z,8.43
2018-08-22T00:25:10.012Z,7.33
2018-08-22T00:29:13.231Z,9.73
2018-08-22T00:33:16.415Z,9.07
2018-08-22T00:37:19.537Z,7.87
2018-08-22T00:41:22.767Z,9.13
2018-08-22T00:45:26.008Z,8.47
2018-08-22T00:49:29.119Z,9.40
2018-08-22T00:53:32.242Z,8.47
2018-08-22T00:57:35.320Z,9.93
2018-08-22T01:01:38.611Z,11.50
2018-08-22T01:05:41.709Z,8.10
2018-08-22T01:09:44.820Z,8.23
2018-08-22T01:13:47.906Z,8.63
2018-08-22T01:17:51.020Z,7.93
2018-08-22T01:21:54.090Z,6.80
2018-08-22T01:25:57.316Z,7.70
2018-08-22T01:30:00.421Z,7.03
2018-08-22T01:34:03.770Z,7.53
2018-08-22T01:38:06.981Z,9.67
2018-08-22T01:42:10.155Z,6.77
2018-08-22T01:46:13.236Z,5.33
2018-08-22T01:50:16.347Z,7.13
2018-08-22T01:54:19.568Z,5.50
2018-08-22T01:58:22.703Z,6.53
2018-08-22T02:02:25.841Z,6.93
2018-08-22T02:06:29.051Z,9.10
2018-08-22T02:10:32.164Z,9.00
2018-08-22T02:14:35.335Z,9.33
2018-08-22T02:18:38.420Z,9.77
2018-08-22T02:22:41.685Z,9.47
2018-08-22T02:26:44.834Z,9.00
2018-08-22T02:30:48.040Z,9.13
2018-08-22T02:34:51.276Z,10.13
2018-08-22T02:38:54.503Z,10.30
2018-08-22T02:42:57.584Z,10.47
2018-08-22T02:47:00.720Z,11.20
2018-08-22T02:51:03.823Z,12.90
2018-08-22T02:55:06.980Z,14.10
2018-08-22T02:59:10.081Z,12.30
2018-08-22T03:03:13.938Z,11.07
2018-08-22T03:07:17.041Z,11.33
2018-08-22T03:11:20.184Z,12.10
2018-08-22T03:15:23.316Z,13.63
2018-08-22T03:19:26.463Z,11.10
2018-08-22T03:23:29.627Z,13.33
2018-08-22T03:27:32.801Z,14.70
2018-08-22T03:31:35.884Z,14.23
2018-08-22T03:35:39.228Z,16.53
2018-08-22T03:39:42.316Z,16.13
2018-08-22T03:43:45.524Z,13.57
2018-08-22T03:47:48.676Z,14.90
2018-08-22T03:51:51.828Z,19.80
2018-08-22T03:55:54.913Z,19.97
2018-08-22T03:59:58.101Z,19.73
2018-08-22T04:04:01.264Z,24.00
2018-08-22T04:08:04.381Z,22.20
2018-08-22T04:12:07.500Z,21.30
2018-08-22T04:16:10.642Z,19.17
2018-08-22T04:20:13.820Z,19.37
2018-08-22T04:24:17.044Z,20.47
2018-08-22T04:28:20.172Z,21.97
2018-08-22T04:32:23.416Z,22.77
2018-08-22T04:36:26.752Z,23.43
2018-08-22T04:40:29.923Z,23.50
2018-08-22T04:44:33.000Z,22.47
2018-08-22T04:48:36.151Z,23.13
2018-08-22T04:52:39.271Z,23.03
2018-08-22T04:56:42.499Z,23.87
2018-08-22T05:00:45.632Z,25.93
2018-08-22T05:04:48.779Z,26.50
2018-08-22T05:08:51.872Z,24.40
2018-08-22T05:12:55.081Z,25.97
2018-08-22T05:16:58.177Z,25.10
2018-08-22T05:21:01.359Z,23.70
2018-08-22T05:25:04.578Z,27.37
2018-08-22T05:29:07.772Z,24.03
2018-08-22T05:33:10.872Z,25.40
2018-08-22T05:37:14.136Z,24.47
2018-08-22T05:41:17.280Z,24.57
2018-08-22T05:45:20.532Z,26.30
2018-08-22T05:49:23.636Z,28.93
2018-08-22T05:53:26.753Z,27.10
2018-08-22T05:57:29.872Z,29.20
2018-08-22T06:01:33.092Z,28.73
2018-08-22T06:05:36.189Z,27.63
2018-08-22T06:09:39.338Z,27.23
2018-08-22T06:13:42.447Z,29.10
2018-08-22T06:17:46.001Z,26.30
2018-08-22T06:21:49.141Z,28.33
2018-08-22T06:25:52.380Z,28.43
2018-08-22T06:29:55.486Z,27.00
2018-08-22T06:33:58.608Z,27.60
2018-08-22T06:38:01.697Z,28.13
2018-08-22T06:42:04.831Z,27.27
2018-08-22T06:46:08.025Z,24.80
2018-08-22T06:50:11.070Z,26.90
2018-08-22T06:54:14.092Z,27.03
2018-08-22T06:58:17.243Z,28.13
2018-08-22T07:02:20.393Z,26.90
2018-08-22T07:06:23.350Z,24.43
2018-08-22T07:10:26.436Z,27.47
2018-08-22T07:14:29.801Z,27.43
2018-08-22T07:18:33.053Z,27.97
2018-08-22T07:22:36.293Z,25.60
2018-08-22T07:26:39.388Z,25.40
2018-08-22T07:30:42.540Z,27.60
2018-08-22T07:34:45.634Z,24.70
2018-08-22T07:38:48.780Z,23.90
2018-08-22T07:42:51.856Z,23.67
2018-08-22T07:46:55.092Z,22.40
2018-08-22T07:50:58.197Z,23.17
2018-08-22T07:55:01.345Z,23.77
2018-08-22T07:59:11.810Z,22.57
2018-08-22T08:03:15.041Z,22.43
2018-08-22T08:07:18.132Z,30.10
2018-08-22T08:11:21.276Z,26.87
2018-08-22T08:15:24.370Z,27.63
2018-08-22T08:19:27.620Z,35.03
2018-08-22T08:23:30.784Z,28.57
2018-08-22T08:27:33.941Z,25.17
2018-08-22T08:31:37.036Z,30.27
2018-08-22T08:35:40.179Z,26.60
2018-08-22T08:39:43.260Z,22.13
2018-08-22T08:43:46.404Z,25.00
2018-08-22T08:47:49.524Z,22.63
2018-08-22T08:51:58.909Z,25.17
2018-08-22T08:56:02.457Z,22.10
2018-08-22T09:00:05.673Z,34.73
2018-08-22T09:04:08.785Z,34.17
2018-08-22T09:08:12.008Z,36.13
2018-08-22T09:12:15.191Z,30.57
2018-08-22T09:16:18.265Z,33.07
2018-08-22T09:20:21.671Z,28.43
2018-08-22T09:24:24.891Z,34.10
2018-08-22T09:28:27.768Z,30.70
2018-08-22T09:32:30.688Z,19.50
2018-08-22T09:36:34.578Z,24.20
2018-08-22T09:40:37.491Z,21.17
2018-08-22T09:44:40.591Z,21.57
2018-08-22T09:48:43.741Z,26.07
2018-08-22T09:52:46.672Z,23.77
2018-08-22T09:56:49.607Z,27.07
2018-08-22T10:00:58.092Z,25.53
2018-08-22T10:05:01.325Z,26.70
2018-08-22T10:09:10.971Z,26.10
2018-08-22T10:13:14.192Z,25.47
2018-08-22T10:17:17.337Z,25.33
2018-08-22T10:21:20.767Z,27.20
2018-08-22T10:25:23.641Z,22.37
2018-08-22T10:29:26.782Z,26.00
2018-08-22T10:33:29.936Z,26.37
2018-08-22T10:37:32.932Z,25.17
2018-08-22T10:41:35.907Z,24.43
2018-08-22T10:45:39.132Z,24.90
2018-08-22T10:49:42.256Z,21.67
2018-08-22T10:53:45.456Z,26.67
2018-08-22T10:57:48.326Z,26.13
2018-08-22T11:01:51.498Z,27.57
2018-08-22T11:05:54.362Z,25.13
2018-08-22T11:09:57.619Z,30.00
2018-08-22T11:14:00.700Z,29.23
2018-08-22T11:18:03.984Z,32.17
2018-08-22T11:22:18.601Z,32.53
2018-08-22T11:26:27.137Z,29.40
2018-08-22T11:30:41.616Z,34.20
2018-08-22T11:34:45.580Z,38.53
2018-08-22T11:38:48.691Z,33.90
2018-08-22T11:42:51.938Z,33.77
2018-08-22T11:46:54.880Z,33.80
2018-08-22T11:50:58.027Z,37.03
2018-08-22T11:55:01.126Z,32.70
2018-08-22T11:59:04.160Z,31.20
2018-08-22T12:03:07.090Z,28.60
2018-08-22T12:07:10.289Z,29.17
2018-08-22T12:11:13.827Z,28.97
2018-08-22T12:15:17.120Z,29.63
2018-08-22T12:19:19.995Z,28.40
2018-08-22T12:23:23.425Z,29.40
2018-08-22T12:27:26.264Z,29.57
2018-08-22T12:31:29.416Z,29.47
2018-08-22T12:35:32.549Z,28.03
2018-08-22T12:39:35.466Z,29.90
2018-08-22T12:43:38.552Z,31.63
2018-08-22T12:47:41.792Z,30.23
2018-08-22T12:51:44.676Z,32.13
2018-08-22T12:55:47.586Z,34.60
2018-08-22T12:59:50.656Z,34.23
2018-08-22T13:03:53.679Z,34.60
2018-08-22T13:07:56.774Z,36.03
2018-08-22T13:11:59.993Z,35.97
2018-08-22T13:16:02.863Z,38.37
2018-08-22T13:20:06.172Z,36.60
2018-08-22T13:24:09.470Z,38.27
2018-08-22T13:28:12.540Z,39.23
2018-08-22T13:32:15.633Z,39.20
2018-08-22T13:36:18.715Z,35.50
2018-08-22T13:40:22.147Z,34.50
2018-08-22T13:44:25.343Z,35.27
2018-08-22T13:48:28.433Z,38.07
2018-08-22T13:52:31.552Z,33.00
2018-08-22T13:56:34.690Z,35.07
2018-08-22T14:00:37.917Z,33.53
2018-08-22T14:04:41.004Z,32.27
2018-08-22T14:08:43.928Z,35.00
2018-08-22T14:12:46.799Z,34.07
2018-08-22T14:16:49.926Z,30.40
2018-08-22T14:20:52.791Z,26.57
2018-08-22T14:24:56.075Z,25.67
2018-08-22T14:28:59.181Z,28.23
2018-08-22T14:33:02.440Z,28.07
2018-08-22T14:37:05.668Z,25.70
2018-08-22T14:41:08.797Z,29.43
2018-08-22T14:45:12.006Z,30.50
2018-08-22T14:49:15.137Z,27.80
2018-08-22T14:53:18.333Z,30.57
2018-08-22T14:57:21.560Z,31.50
2018-08-22T15:01:24.428Z,31.67
2018-08-22T15:05:27.338Z,31.83
2018-08-22T15:09:30.528Z,32.90
2018-08-22T15:13:33.529Z,32.23
2018-08-22T15:17:36.652Z,31.50
2018-08-22T15:21:39.866Z,29.60
2018-08-22T15:25:43.166Z,31.93
2018-08-22T15:29:46.341Z,29.90
2018-08-22T15:33:49.190Z,29.00
2018-08-22T15:37:52.412Z,29.00
2018-08-22T15:41:55.386Z,27.47
2018-08-22T15:45:58.460Z,25.47
2018-08-22T15:50:01.360Z,26.50
2018-08-22T15:54:13.247Z,26.90
2018-08-22T15:58:16.352Z,26.03
2018-08-22T16:02:19.477Z,25.20
2018-08-22T16:06:22.360Z,25.03
2018-08-22T16:10:25.489Z,26.90
2018-08-22T16:14:28.520Z,28.07
2018-08-22T16:18:33.865Z,25.43
2018-08-22T16:22:36.984Z,24.50
2018-08-22T16:26:40.092Z,23.93
2018-08-22T16:30:43.006Z,24.47
2018-08-22T16:34:46.096Z,24.87
2018-08-22T16:38:49.185Z,23.77
2018-08-22T16:42:52.432Z,22.20
2018-08-22T16:46:55.564Z,24.87
2018-08-22T16:50:58.416Z,24.23
2018-08-22T16:55:11.676Z,22.80
2018-08-22T16:59:14.779Z,24.40
2018-08-22T17:03:17.641Z,22.50
2018-08-22T17:07:20.566Z,23.80
2018-08-22T17:11:23.664Z,23.50
2018-08-22T17:15:26.691Z,23.80
2018-08-22T17:19:29.749Z,21.57
2018-08-22T17:23:34.950Z,18.97
2018-08-22T17:27:38.046Z,19.53
2018-08-22T17:31:41.225Z,21.83
2018-08-22T17:35:44.278Z,23.13
2018-08-22T17:39:47.416Z,21.10
2018-08-22T17:44:08.193Z,23.10
2018-08-22T17:48:11.414Z,19.97
2018-08-22T17:52:14.508Z,20.63
2018-08-22T17:56:19.748Z,18.73
2018-08-22T18:00:22.628Z,21.67
2018-08-22T18:04:25.826Z,22.33
2018-08-22T18:08:29.000Z,23.50
2018-08-22T18:12:31.911Z,25.57
2018-08-22T18:16:35.011Z,24.77
2018-08-22T18:20:40.724Z,22.83
2018-08-22T18:24:48.052Z,22.40
2018-08-22T18:28:51.338Z,23.53
2018-08-22T18:32:54.444Z,21.37
2018-08-22T18:36:57.586Z,22.80
2018-08-22T18:41:05.498Z,22.50
2018-08-22T18:45:08.644Z,24.47
2018-08-22T18:49:11.736Z,22.30
2018-08-22T18:53:16.160Z,24.43
2018-08-22T18:57:19.520Z,22.23
2018-08-22T19:01:22.423Z,26.67
2018-08-22T19:05:30.109Z,22.27
2018-08-22T19:09:33.204Z,22.13
2018-08-22T19:13:36.309Z,24.40
2018-08-22T19:17:45.996Z,27.43
2018-08-22T19:21:48.877Z,24.47
2018-08-22T19:25:53.013Z,26.77
2018-08-22T19:29:56.449Z,27.37
2018-08-22T19:33:59.375Z,27.53
2018-08-22T19:38:04.617Z,27.30
2018-08-22T19:42:07.631Z,28.83
2018-08-22T19:46:10.732Z,29.13
2018-08-22T19:50:13.893Z,30.40
2018-08-22T19:54:17.090Z,30.03
2018-08-22T19:58:28.505Z,30.10
2018-08-22T20:02:31.625Z,29.33
2018-08-22T20:06:34.852Z,31.47
2018-08-22T20:10:37.958Z,34.07
2018-08-22T20:14:46.936Z,29.83
2018-08-22T20:18:52.936Z,34.37
2018-08-22T20:22:56.339Z,34.17
2018-08-22T20:27:02.400Z,35.13
2018-08-22T20:31:09.896Z,36.40
2018-08-22T20:35:17.293Z,34.37
2018-08-22T20:39:20.683Z,35.80
2018-08-22T20:43:28.850Z,37.33
2018-08-22T20:47:31.980Z,35.50
2018-08-22T20:51:35.104Z,39.43
2018-08-22T20:55:38.374Z,39.90
2018-08-22T20:59:41.406Z,37.53
2018-08-22T21:03:44.600Z,37.50
2018-08-22T21:07:47.708Z,38.17
2018-08-22T21:11:54.952Z,38.67
2018-08-22T21:15:58.625Z,37.50
2018-08-22T21:20:08.552Z,36.07
2018-08-22T21:24:11.678Z,39.23
2018-08-22T21:28:14.834Z,38.97
2018-08-22T21:32:18.266Z,38.13
2018-08-22T21:36:21.421Z,41.73
2018-08-22T21:40:24.548Z,39.47
2018-08-22T21:44:27.764Z,40.50
2018-08-22T21:48:30.877Z,40.53
2018-08-22T21:52:49.904Z,41.17
2018-08-22T21:56:53.004Z,40.43
2018-08-22T22:00:56.137Z,41.63
2018-08-22T22:04:59.278Z,43.93
2018-08-22T22:09:02.638Z,40.10
2018-08-22T22:13:05.881Z,40.57
2018-08-22T22:17:09.053Z,39.57
2018-08-22T22:21:14.706Z,40.90
2018-08-22T22:25:17.884Z,41.07
2018-08-22T22:29:24.028Z,38.17
2018-08-22T22:33:27.376Z,34.53
2018-08-22T22:37:30.521Z,37.57
2018-08-22T22:41:33.644Z,39.40
2018-08-22T22:45:36.878Z,41.70
2018-08-22T22:49:40.041Z,35.90
2018-08-22T22:53:43.157Z,28.40
2018-08-22T22:57:46.317Z,27.77
2018-08-22T23:01:49.421Z,21.80
2018-08-22T23:05:52.568Z,20.07
2018-08-22T23:09:57.747Z,21.07
2018-08-22T23:14:00.885Z,21.07
2018-08-22T23:18:03.980Z,23.00
2018-08-22T23:22:07.224Z,22.40
2018-08-22T23:26:15.632Z,19.37
2018-08-22T23:30:21.204Z,20.70
2018-08-22T23:34:24.633Z,20.53
2018-08-22T23:38:29.920Z,21.07
2018-08-22T23:42:33.056Z,23.27
2018-08-22T23:46:36.272Z,23.63
2018-08-22T23:50:55.000Z,19.73
2018-08-22T23:54:58.124Z,18.80
2018-08-22T23:59:00.987Z,18.13
